Time;durP1;ratioP1;P1;durP2;ratioP2;P2;SDS_P1;SDS_P2;PMS_P1;PMS_P2;Temp;Humidity;BMP_temperature;BMP_pressure;BME280_temperature;BME280_humidity;BME280_pressure;Samples;Min_cycle;Max_cycle;Signal;HPM_P1;HPM_P2
2021/03/14 00:00:12;;;;;;;24.05;10.05;;;8.40;99.90;;;;;;5071805;28;20492;-61
2021/03/14 00:02:38;;;;;;;28.67;10.00;;;8.40;99.90;;;;;;5070339;28;20052;-62
2021/03/14 00:05:06;;;;;;;23.95;10.45;;;8.40;99.90;;;;;;5066472;28;20068;-61
2021/03/14 00:07:33;;;;;;;24.83;10.18;;;8.40;99.90;;;;;;5069115;28;20071;-61
2021/03/14 00:10:00;;;;;;;23.70;10.20;;;8.40;99.90;;;;;;5060464;28;20683;-62
2021/03/14 00:12:26;;;;;;;21.85;9.70;;;8.30;99.90;;;;;;5070465;28;20571;-62
2021/03/14 00:14:53;;;;;;;21.27;9.68;;;8.40;99.90;;;;;;5071574;28;20044;-62
2021/03/14 00:17:19;;;;;;;22.50;10.23;;;8.30;99.90;;;;;;5053844;28;20139;-62
2021/03/14 00:19:46;;;;;;;25.42;10.15;;;8.30;99.90;;;;;;5068129;28;20045;-62
2021/03/14 00:22:13;;;;;;;22.25;9.48;;;8.30;99.90;;;;;;5061718;28;20389;-61
2021/03/14 00:24:39;;;;;;;22.10;9.68;;;8.30;99.90;;;;;;5033164;28;20056;-61
2021/03/14 00:27:06;;;;;;;26.35;10.52;;;8.30;99.90;;;;;;5067778;28;20044;-62
2021/03/14 00:29:32;;;;;;;24.63;10.40;;;8.30;99.90;;;;;;5069747;28;20045;-62
2021/03/14 00:32:01;;;;;;;22.15;10.10;;;8.30;99.90;;;;;;5070219;28;20563;-61
2021/03/14 00:34:29;;;;;;;23.00;10.40;;;8.30;99.90;;;;;;5066538;28;20102;-62
2021/03/14 00:36:56;;;;;;;24.92;9.85;;;8.30;99.90;;;;;;5070309;28;20048;-62
2021/03/14 00:39:22;;;;;;;23.33;10.13;;;8.30;99.90;;;;;;5070122;28;20051;-62
2021/03/14 00:41:49;;;;;;;26.55;10.38;;;8.30;99.90;;;;;;5050906;28;20054;-62
2021/03/14 00:44:16;;;;;;;22.52;10.25;;;8.30;99.90;;;;;;5068856;28;20098;-62
2021/03/14 00:46:43;;;;;;;26.02;10.40;;;8.30;99.90;;;;;;5052894;28;20044;-62
2021/03/14 00:49:18;;;;;;;25.88;10.50;;;8.30;99.90;;;;;;5049962;28;20052;-62
2021/03/14 00:51:45;;;;;;;24.38;10.88;;;8.30;99.90;;;;;;5056764;28;20045;-62
2021/03/14 00:54:12;;;;;;;23.80;10.00;;;8.20;99.90;;;;;;5048097;28;20117;-62
2021/03/14 00:56:39;;;;;;;25.50;10.05;;;8.20;99.90;;;;;;5053544;28;20060;-62
2021/03/14 00:59:09;;;;;;;22.08;10.07;;;8.20;99.90;;;;;;5046319;28;20042;-62
2021/03/14 01:01:36;;;;;;;27.17;10.05;;;8.20;99.90;;;;;;5042592;28;20492;-62
2021/03/14 01:04:04;;;;;;;23.67;10.07;;;8.20;99.90;;;;;;5068281;28;20040;-62
2021/03/14 01:06:31;;;;;;;24.38;10.32;;;8.20;99.90;;;;;;5050033;28;20075;-62
2021/03/14 01:08:59;;;;;;;24.00;10.13;;;8.10;99.90;;;;;;5070400;28;20456;-62
2021/03/14 01:11:28;;;;;;;21.60;9.77;;;8.10;99.90;;;;;;5070736;28;20032;-62
2021/03/14 01:14:15;;;;;;;21.95;9.85;;;8.10;99.90;;;;;;5070864;28;20502;-61
2021/03/14 01:17:02;;;;;;;22.90;9.77;;;8.10;99.90;;;;;;5043863;28;20070;-62
2021/03/14 01:19:31;;;;;;;23.10;9.32;;;8.10;99.90;;;;;;5035832;28;20512;-62
2021/03/14 01:21:57;;;;;;;22.20;9.93;;;8.10;99.90;;;;;;5053477;28;20048;-62
2021/03/14 01:24:24;;;;;;;22.25;9.40;;;8.10;99.90;;;;;;5072896;28;20067;-62
2021/03/14 01:26:51;;;;;;;23.50;10.02;;;8.10;99.90;;;;;;5052236;28;20032;-62
2021/03/14 01:29:17;;;;;;;23.40;9.63;;;8.10;99.90;;;;;;5051610;28;20427;-61
2021/03/14 01:31:44;;;;;;;23.98;9.52;;;8.10;99.90;;;;;;5070448;28;20095;-62
2021/03/14 01:34:11;;;;;;;24.05;10.05;;;8.10;99.90;;;;;;5044875;28;20139;-62
2021/03/14 01:36:37;;;;;;;24.13;10.73;;;8.10;99.90;;;;;;5046576;28;20048;-62
2021/03/14 01:39:04;;;;;;;22.50;10.02;;;8.10;99.90;;;;;;5048700;28;20041;-62
2021/03/14 01:41:31;;;;;;;20.80;9.52;;;8.10;99.90;;;;;;5069431;28;20495;-62
2021/03/14 01:43:58;;;;;;;21.58;10.02;;;8.20;99.90;;;;;;5068687;28;20040;-62
2021/03/14 01:46:26;;;;;;;22.42;9.70;;;8.10;99.90;;;;;;5058461;28;20044;-62
2021/03/14 01:49:14;;;;;;;23.13;9.55;;;8.10;99.90;;;;;;5063916;28;20090;-62
2021/03/14 01:51:41;;;;;;;22.85;9.15;;;8.10;99.90;;;;;;5067414;28;20399;-62
2021/03/14 01:54:09;;;;;;;23.17;9.93;;;8.10;99.90;;;;;;5055747;28;20110;-62
2021/03/14 01:56:36;;;;;;;23.48;9.57;;;8.10;99.90;;;;;;5068165;28;20089;-62
2021/03/14 01:59:04;;;;;;;20.95;8.73;;;8.20;99.90;;;;;;5069421;28;20167;-62
2021/03/14 02:01:31;;;;;;;19.38;8.15;;;8.20;99.90;;;;;;5046138;28;20492;-62
2021/03/14 02:03:59;;;;;;;19.58;8.38;;;8.20;99.90;;;;;;5062636;28;20371;-62
2021/03/14 02:06:26;;;;;;;17.50;9.02;;;8.20;99.90;;;;;;5069267;28;20068;-62
2021/03/14 02:08:55;;;;;;;23.08;7.97;;;8.20;99.90;;;;;;5053568;28;20047;-62
2021/03/14 02:11:25;;;;;;;18.13;7.97;;;8.20;99.90;;;;;;5066597;28;20051;-62
2021/03/14 02:13:53;;;;;;;18.95;7.90;;;8.10;99.90;;;;;;5070825;28;20033;-62
2021/03/14 02:16:30;;;;;;;18.52;8.27;;;8.20;99.90;;;;;;5067923;28;20048;-62
2021/03/14 02:19:01;;;;;;;20.15;8.20;;;8.20;99.90;;;;;;5063463;28;20037;-62
2021/03/14 02:21:33;;;;;;;20.65;8.30;;;8.20;99.90;;;;;;5068215;28;20518;-62
2021/03/14 02:24:07;;;;;;;19.20;7.97;;;8.20;99.90;;;;;;5048466;28;20056;-62
2021/03/14 02:26:45;;;;;;;17.77;8.35;;;8.20;99.90;;;;;;5068210;28;20041;-62
2021/03/14 02:29:17;;;;;;;20.33;8.20;;;8.20;99.90;;;;;;5070714;28;20067;-62
2021/03/14 02:31:50;;;;;;;17.45;7.43;;;8.30;99.90;;;;;;5061836;28;20391;-62
2021/03/14 02:34:46;;;;;;;16.63;6.75;;;8.20;99.90;;;;;;5040775;28;20098;-62
2021/03/14 02:37:13;;;;;;;15.93;6.65;;;8.20;99.90;;;;;;5064420;28;20399;-62
2021/03/14 02:39:41;;;;;;;17.20;7.28;;;8.20;99.90;;;;;;5051131;28;20045;-62
2021/03/14 02:42:14;;;;;;;14.52;6.88;;;8.20;99.90;;;;;;5047725;28;20564;-62
2021/03/14 02:44:47;;;;;;;18.65;7.60;;;8.20;99.90;;;;;;5070931;28;20125;-62
2021/03/14 02:47:14;;;;;;;17.63;7.20;;;8.20;99.90;;;;;;5051067;28;20048;-62
2021/03/14 02:50:09;;;;;;;16.50;6.35;;;8.30;99.90;;;;;;5074608;28;20048;-62
2021/03/14 02:52:37;;;;;;;15.10;6.68;;;8.30;99.90;;;;;;5052743;28;20055;-62
2021/03/14 02:55:05;;;;;;;16.45;6.88;;;8.20;99.90;;;;;;5072394;28;20466;-62
2021/03/14 02:57:32;;;;;;;17.65;6.78;;;8.30;99.90;;;;;;5071152;28;20040;-62
2021/03/14 02:59:59;;;;;;;13.20;5.80;;;8.20;99.90;;;;;;5072480;28;20123;-62
2021/03/14 03:02:27;;;;;;;14.70;6.55;;;8.20;99.90;;;;;;5071956;28;20039;-62
2021/03/14 03:04:54;;;;;;;18.63;7.07;;;8.30;99.90;;;;;;5072069;28;20048;-62
2021/03/14 03:07:22;;;;;;;13.52;5.80;;;8.50;99.90;;;;;;5073556;28;20041;-62
2021/03/14 03:09:52;;;;;;;10.70;5.55;;;8.30;99.90;;;;;;5072220;28;20642;-62
2021/03/14 03:12:24;;;;;;;14.98;5.78;;;8.40;99.90;;;;;;5052419;28;20036;-62
2021/03/14 03:14:53;;;;;;;17.05;6.50;;;8.40;99.90;;;;;;5036710;28;20048;-62
2021/03/14 03:17:24;;;;;;;15.98;5.88;;;8.40;99.90;;;;;;5054602;28;20040;-61
2021/03/14 03:19:54;;;;;;;14.38;6.15;;;8.40;99.90;;;;;;5071553;28;20119;-62
2021/03/14 03:22:22;;;;;;;16.88;6.05;;;8.50;99.90;;;;;;5073515;28;20052;-62
2021/03/14 03:24:52;;;;;;;16.27;6.40;;;8.40;99.90;;;;;;5073105;28;20067;-62
2021/03/14 03:27:19;;;;;;;12.15;5.55;;;8.50;99.90;;;;;;5033879;28;20052;-62
2021/03/14 03:29:47;;;;;;;16.58;6.68;;;8.50;99.90;;;;;;5039186;28;20455;-62
2021/03/14 03:32:14;;;;;;;16.02;6.13;;;8.50;99.90;;;;;;5045776;28;20041;-62
2021/03/14 03:34:40;;;;;;;20.60;5.82;;;8.50;99.90;;;;;;5071379;28;20029;-62
2021/03/14 03:37:07;;;;;;;12.93;5.90;;;8.50;99.90;;;;;;5071578;28;20041;-62
2021/03/14 03:39:34;;;;;;;16.55;6.35;;;8.50;99.90;;;;;;5048311;28;20069;-62
2021/03/14 03:42:06;;;;;;;22.48;7.20;;;8.60;99.90;;;;;;5044613;28;20061;-62
2021/03/14 03:44:38;;;;;;;16.67;6.90;;;8.60;99.90;;;;;;5048608;28;20062;-62
2021/03/14 03:47:09;;;;;;;;;;;8.60;99.90;;;;;;5071406;28;20056;-62
2021/03/14 03:49:38;;;;;;;15.48;6.00;;;8.50;99.90;;;;;;5070216;28;19958;-62
2021/03/14 03:52:06;;;;;;;15.65;6.40;;;8.60;99.90;;;;;;5070413;28;20496;-62
2021/03/14 03:54:35;;;;;;;18.92;6.40;;;8.60;99.90;;;;;;5068662;28;20036;-62
2021/03/14 03:57:02;;;;;;;12.57;6.20;;;8.60;99.90;;;;;;5070446;28;20045;-62
2021/03/14 03:59:32;;;;;;;12.10;5.55;;;8.60;99.90;;;;;;5071952;28;20049;-62
2021/03/14 04:02:00;;;;;;;18.17;6.78;;;8.70;99.90;;;;;;5073023;28;20041;-62
2021/03/14 04:04:28;;;;;;;18.17;5.78;;;8.70;99.90;;;;;;5045716;28;20131;-62
2021/03/14 04:06:57;;;;;;;14.85;6.43;;;8.70;99.90;;;;;;5069904;28;20112;-62
2021/03/14 04:09:24;;;;;;;15.52;6.55;;;8.70;99.90;;;;;;5052077;28;20040;-62
2021/03/14 04:11:52;;;;;;;13.55;5.95;;;8.80;99.90;;;;;;5053653;28;20041;-62
2021/03/14 04:14:20;;;;;;;14.38;5.43;;;8.80;99.90;;;;;;5061590;28;20045;-62
2021/03/14 04:16:49;;;;;;;15.23;5.93;;;8.90;99.90;;;;;;5070373;28;20391;-62
2021/03/14 04:19:19;;;;;;;15.25;6.43;;;8.90;99.90;;;;;;5052863;28;20052;-62
2021/03/14 04:21:47;;;;;;;17.40;6.00;;;8.90;99.90;;;;;;5070153;28;20769;-62
2021/03/14 04:24:16;;;;;;;14.43;6.55;;;8.90;99.90;;;;;;5069723;28;20449;-62
2021/03/14 04:26:45;;;;;;;16.67;6.25;;;8.90;99.90;;;;;;5070364;28;20479;-62
2021/03/14 04:29:12;;;;;;;12.75;6.22;;;8.90;99.90;;;;;;5071921;28;20048;-62
2021/03/14 04:31:47;;;;;;;20.35;6.03;;;8.90;99.90;;;;;;5069079;28;20164;-62
2021/03/14 04:34:17;;;;;;;17.50;6.10;;;8.90;99.90;;;;;;5047207;28;20131;-62
2021/03/14 04:36:45;;;;;;;19.40;10.73;;;8.90;99.90;;;;;;5069624;28;20063;-62
2021/03/14 04:39:14;;;;;;;17.30;7.85;;;9.00;99.90;;;;;;5069859;28;20444;-62
2021/03/14 04:41:43;;;;;;;14.43;6.38;;;8.90;99.90;;;;;;5038508;28;20072;-62
2021/03/14 04:44:10;;;;;;;13.77;6.40;;;8.90;99.90;;;;;;5038049;28;20400;-62
2021/03/14 04:46:38;;;;;;;13.27;5.35;;;9.00;99.90;;;;;;5053354;28;20117;-62
2021/03/14 04:49:05;;;;;;;12.13;5.18;;;9.00;99.90;;;;;;5034659;28;20045;-62
2021/03/14 04:51:36;;;;;;;14.73;6.00;;;8.90;99.90;;;;;;5047564;28;20100;-62
2021/03/14 04:54:04;;;;;;;12.20;5.18;;;8.90;99.90;;;;;;5047970;28;20041;-62
2021/03/14 04:56:32;;;;;;;16.85;6.78;;;8.80;99.90;;;;;;5031710;28;20056;-61
2021/03/14 04:58:59;;;;;;;18.75;7.60;;;8.80;99.90;;;;;;5030540;28;20124;-61
2021/03/14 05:01:27;;;;;;;16.23;6.88;;;8.70;99.90;;;;;;5047079;28;20053;-62
2021/03/14 05:03:56;;;;;;;15.98;6.32;;;8.60;99.90;;;;;;5049361;28;20056;-62
2021/03/14 05:06:23;;;;;;;19.08;8.95;;;8.60;99.90;;;;;;5048964;28;20051;-62
2021/03/14 05:08:51;;;;;;;21.45;9.82;;;8.60;99.90;;;;;;5031836;28;20037;-62
2021/03/14 05:11:19;;;;;;;20.27;7.53;;;8.70;99.90;;;;;;5046750;28;20432;-62
2021/03/14 05:13:47;;;;;;;17.25;7.25;;;8.70;99.90;;;;;;5049570;28;20573;-62
2021/03/14 05:16:16;;;;;;;16.83;7.38;;;8.60;99.90;;;;;;5050673;28;20037;-62
2021/03/14 05:18:45;;;;;;;21.75;9.38;;;8.50;99.90;;;;;;5054088;28;20033;-62
2021/03/14 05:21:13;;;;;;;22.25;8.18;;;8.50;99.90;;;;;;5029351;28;20048;-62
2021/03/14 05:23:40;;;;;;;18.70;7.00;;;8.60;99.90;;;;;;5030832;28;20094;-62
2021/03/14 05:26:12;;;;;;;22.33;8.65;;;8.50;99.90;;;;;;5030311;28;20057;-61
2021/03/14 05:28:40;;;;;;;25.95;8.70;;;8.50;99.90;;;;;;5027245;28;20063;-62
2021/03/14 05:31:34;;;;;;;22.98;8.90;;;8.60;99.90;;;;;;5047643;28;20033;-62
2021/03/14 05:34:07;;;;;;;16.98;7.05;;;8.60;99.90;;;;;;5048422;28;20041;-62
2021/03/14 05:36:35;;;;;;;21.25;6.85;;;8.60;99.90;;;;;;5047757;28;20403;-62
2021/03/14 05:39:04;;;;;;;21.38;7.75;;;8.60;99.90;;;;;;5029175;28;20194;-62
2021/03/14 05:41:33;;;;;;;24.45;9.10;;;8.70;99.90;;;;;;5047281;28;20045;-62
2021/03/14 05:44:01;;;;;;;21.15;8.05;;;8.70;99.90;;;;;;5050165;28;20055;-62
2021/03/14 05:46:29;;;;;;;19.90;7.53;;;8.70;99.90;;;;;;5036445;28;20589;-62
2021/03/14 05:48:56;;;;;;;17.02;6.60;;;8.80;99.90;;;;;;5042418;28;20135;-62
2021/03/14 05:51:33;;;;;;;17.55;7.03;;;8.70;99.90;;;;;;5047833;28;20029;-61
2021/03/14 05:54:01;;;;;;;17.48;7.32;;;8.70;99.90;;;;;;5049714;28;20049;-61
2021/03/14 05:56:28;;;;;;;17.17;6.38;;;8.70;99.90;;;;;;5050183;28;20064;-63
2021/03/14 05:58:56;;;;;;;17.80;6.03;;;8.70;99.90;;;;;;5049157;28;20048;-62
2021/03/14 06:01:27;;;;;;;20.95;8.90;;;8.70;99.90;;;;;;5024917;28;20094;-62
2021/03/14 06:03:56;;;;;;;21.23;9.30;;;8.70;99.90;;;;;;5043068;28;20497;-62
2021/03/14 06:06:23;;;;;;;16.08;7.13;;;8.70;99.90;;;;;;5038100;28;20040;-61
2021/03/14 06:08:53;;;;;;;16.92;7.32;;;8.70;99.90;;;;;;5039429;28;20045;-62
2021/03/14 06:11:20;;;;;;;20.70;8.70;;;8.70;99.90;;;;;;5030038;28;20045;-62
2021/03/14 06:13:47;;;;;;;24.52;10.45;;;8.70;99.90;;;;;;5050466;28;20098;-62
2021/03/14 06:16:14;;;;;;;17.88;7.85;;;8.70;99.90;;;;;;5034692;28;20064;-62
2021/03/14 06:18:42;;;;;;;20.63;7.60;;;8.80;99.90;;;;;;5052386;28;20037;-62
2021/03/14 06:21:20;;;;;;;14.85;6.30;;;8.80;99.90;;;;;;5054207;28;20472;-62
2021/03/14 06:23:59;;;;;;;13.77;7.15;;;8.80;99.90;;;;;;5052881;28;20075;-62
2021/03/14 06:26:36;;;;;;;14.00;5.97;;;8.90;99.90;;;;;;5054004;28;20123;-62
2021/03/14 06:29:18;;;;;;;15.23;5.65;;;8.90;99.90;;;;;;5039647;28;20041;-62
2021/03/14 06:32:00;;;;;;;12.63;5.75;;;8.90;99.90;;;;;;5034266;28;20056;-62
2021/03/14 06:34:38;;;;;;;15.65;6.32;;;8.90;99.90;;;;;;5054081;28;20041;-62
2021/03/14 06:37:07;;;;;;;15.95;6.30;;;8.90;99.90;;;;;;5044957;28;20049;-62
2021/03/14 06:39:36;;;;;;;20.10;8.68;;;9.00;99.90;;;;;;5053838;28;20044;-62
2021/03/14 06:42:04;;;;;;;18.15;8.10;;;9.10;99.90;;;;;;5063093;28;20067;-62
2021/03/14 06:44:45;;;;;;;30.55;15.18;;;9.10;99.90;;;;;;5054146;28;20495;-62
2021/03/14 06:47:12;;;;;;;20.30;10.95;;;9.20;99.90;;;;;;5072434;28;20043;-62
2021/03/14 06:49:40;;;;;;;18.33;6.85;;;9.30;99.90;;;;;;5071145;28;20073;-62
2021/03/14 06:52:07;;;;;;;11.90;5.35;;;9.40;99.90;;;;;;5073118;28;20048;-62
2021/03/14 06:54:37;;;;;;;12.60;5.25;;;9.50;99.90;;;;;;5071061;28;20373;-62
2021/03/14 06:57:21;;;;;;;9.90;4.43;;;9.50;99.90;;;;;;5071564;28;20467;-62
2021/03/14 06:59:56;;;;;;;13.88;7.30;;;9.60;99.90;;;;;;5040506;28;20036;-62
2021/03/14 07:02:25;;;;;;;16.13;7.65;;;9.70;99.90;;;;;;5073401;28;20040;-62
2021/03/14 07:04:59;;;;;;;12.48;5.28;;;9.80;99.90;;;;;;5067699;28;20101;-62
2021/03/14 07:07:30;;;;;;;10.80;4.95;;;9.80;99.90;;;;;;5071448;28;20093;-62
2021/03/14 07:10:08;;;;;;;21.08;9.77;;;9.90;99.90;;;;;;5059791;28;20465;-62
2021/03/14 07:12:35;;;;;;;18.70;11.18;;;9.90;99.90;;;;;;5053042;28;20047;-62
2021/03/14 07:15:21;;;;;;;31.90;17.65;;;10.00;99.80;;;;;;5076916;28;20036;-62
2021/03/14 07:17:56;;;;;;;25.45;13.98;;;10.00;99.80;;;;;;5072237;28;20037;-62
2021/03/14 07:20:27;;;;;;;53.03;29.58;;;10.00;99.90;;;;;;5068198;28;20059;-62
2021/03/14 07:23:15;;;;;;;46.08;25.83;;;10.10;99.60;;;;;;5070436;28;20136;-62
2021/03/14 07:25:45;;;;;;;82.43;35.78;;;10.10;99.90;;;;;;5066018;28;20499;-62
2021/03/14 07:28:12;;;;;;;110.03;37.72;;;10.10;99.70;;;;;;5054405;28;20036;-62
2021/03/14 07:30:38;;;;;;;151.25;46.65;;;10.10;98.60;;;;;;5070783;28;20048;-62
2021/03/14 07:33:10;;;;;;;141.23;43.00;;;10.00;98.20;;;;;;5046107;28;20098;-62
2021/03/14 07:35:38;;;;;;;41.65;15.95;;;10.00;97.20;;;;;;5059437;28;20036;-62
2021/03/14 07:38:05;;;;;;;47.47;17.10;;;10.00;97.80;;;;;;5042591;28;20041;-62
2021/03/14 07:40:32;;;;;;;27.15;10.45;;;10.00;98.30;;;;;;5068871;28;20052;-62
2021/03/14 07:43:00;;;;;;;7.72;2.88;;;10.00;98.40;;;;;;5070253;28;20063;-62
2021/03/14 07:45:29;;;;;;;4.38;1.38;;;10.00;96.70;;;;;;5054553;28;20047;-61
2021/03/14 07:47:56;;;;;;;3.60;1.20;;;10.00;96.00;;;;;;5051382;28;20053;-61
2021/03/14 07:50:33;;;;;;;4.65;1.65;;;9.90;96.40;;;;;;5071558;28;20417;-61
2021/03/14 07:53:12;;;;;;;4.32;1.63;;;9.80;96.90;;;;;;5054445;28;20040;-62
2021/03/14 07:55:42;;;;;;;2.67;0.47;;;9.80;96.60;;;;;;5072763;28;20055;-61
2021/03/14 07:58:21;;;;;;;3.22;0.82;;;9.80;96.70;;;;;;5069753;28;20487;-60
2021/03/14 08:00:51;;;;;;;2.75;0.93;;;9.70;97.10;;;;;;5068239;28;20483;-61
2021/03/14 08:03:40;;;;;;;7.45;2.85;;;9.60;97.50;;;;;;5065173;28;20083;-62
2021/03/14 08:06:09;;;;;;;8.95;3.00;;;9.60;94.80;;;;;;5048332;28;20483;-62
2021/03/14 08:08:35;;;;;;;7.18;1.92;;;9.60;93.50;;;;;;5049253;28;20503;-62
2021/03/14 08:11:02;;;;;;;13.70;2.78;;;9.60;94.10;;;;;;5069240;28;20048;-63
2021/03/14 08:13:34;;;;;;;13.82;3.10;;;9.40;94.50;;;;;;5069615;28;20044;-64
2021/03/14 08:16:08;;;;;;;10.07;2.58;;;9.40;94.90;;;;;;5051938;28;20131;-63
2021/03/14 08:18:41;;;;;;;8.38;1.92;;;9.40;94.90;;;;;;5071142;28;20036;-63
2021/03/14 08:21:21;;;;;;;12.35;2.80;;;9.30;95.00;;;;;;5053341;28;20467;-63
2021/03/14 08:24:05;;;;;;;5.47;1.33;;;9.30;96.40;;;;;;5061880;28;20037;-63
2021/03/14 08:26:36;;;;;;;9.50;2.15;;;9.20;97.90;;;;;;5062346;28;20396;-63
2021/03/14 08:29:10;;;;;;;10.45;2.47;;;9.30;98.10;;;;;;5049958;28;20049;-63
2021/03/14 08:31:46;;;;;;;5.95;1.38;;;9.20;98.80;;;;;;5061393;28;20033;-62
2021/03/14 08:34:44;;;;;;;1.85;0.70;;;9.10;99.80;;;;;;5038343;28;20033;-63
2021/03/14 08:37:28;;;;;;;6.03;1.70;;;9.00;99.90;;;;;;5044997;28;20086;-63
2021/03/14 08:40:01;;;;;;;1.83;0.52;;;8.90;99.90;;;;;;5052502;28;20143;-63
2021/03/14 08:42:55;;;;;;;4.70;1.60;;;8.80;99.90;;;;;;5069182;28;20116;-63
2021/03/14 08:45:47;;;;;;;5.65;2.67;;;8.70;99.90;;;;;;5050828;28;20289;-63
2021/03/14 08:48:27;;;;;;;11.05;3.58;;;8.60;99.90;;;;;;5052512;28;20044;-63
2021/03/14 08:50:55;;;;;;;4.93;1.48;;;8.60;99.90;;;;;;5055904;28;20040;-63
2021/03/14 08:53:29;;;;;;;4.78;1.30;;;8.60;99.90;;;;;;5065745;28;20032;-63
2021/03/14 08:56:18;;;;;;;17.10;5.95;;;8.60;99.90;;;;;;5044758;28;20089;-63
2021/03/14 08:59:18;;;;;;;17.13;7.35;;;8.70;99.90;;;;;;5063943;28;20048;-63
2021/03/14 09:01:57;;;;;;;13.57;4.85;;;8.70;99.90;;;;;;5054342;28;20048;-63
2021/03/14 09:04:31;;;;;;;6.90;2.10;;;8.70;99.90;;;;;;5066325;28;20083;-63
2021/03/14 09:07:18;;;;;;;4.63;1.50;;;8.70;99.90;;;;;;5068826;28;20171;-63
2021/03/14 09:09:48;;;;;;;3.10;1.05;;;8.70;99.90;;;;;;5049013;28;20052;-63
2021/03/14 09:12:35;;;;;;;2.90;1.02;;;8.80;99.90;;;;;;5063919;28;20102;-63
2021/03/14 09:15:13;;;;;;;5.22;2.00;;;8.70;99.90;;;;;;5044838;28;20040;-61
2021/03/14 09:17:57;;;;;;;7.15;1.88;;;8.60;99.90;;;;;;5052336;28;20068;-63
2021/03/14 09:20:28;;;;;;;4.38;1.58;;;8.60;99.90;;;;;;5051380;28;20059;-63
2021/03/14 09:22:55;;;;;;;4.13;1.15;;;8.60;99.90;;;;;;5050949;28;20045;-63
2021/03/14 09:25:29;;;;;;;3.88;1.75;;;8.60;99.90;;;;;;5054247;28;20044;-63
2021/03/14 09:27:59;;;;;;;6.25;3.05;;;8.70;99.90;;;;;;5070445;28;20301;-63
2021/03/14 09:30:43;;;;;;;5.03;1.83;;;8.70;99.90;;;;;;5059557;28;20040;-63
2021/03/14 09:33:12;;;;;;;3.22;1.27;;;8.80;99.90;;;;;;5048276;28;20056;-63
2021/03/14 09:36:06;;;;;;;2.55;0.63;;;8.80;99.90;;;;;;5064465;28;20060;-63
2021/03/14 09:38:57;;;;;;;3.47;1.30;;;8.80;99.90;;;;;;5031426;28;20041;-63
2021/03/14 09:41:44;;;;;;;3.90;1.88;;;8.80;99.90;;;;;;5031721;28;20393;-63
2021/03/14 09:44:33;;;;;;;5.63;1.08;;;8.80;99.90;;;;;;5042006;28;20049;-63
2021/03/14 09:47:12;;;;;;;2.55;0.50;;;8.70;99.90;;;;;;5017076;28;20053;-62
2021/03/14 09:50:05;;;;;;;2.63;0.88;;;8.90;99.90;;;;;;5035854;28;20052;-62
2021/03/14 09:52:41;;;;;;;5.38;3.30;;;8.90;99.90;;;;;;5025466;28;20127;-63
2021/03/14 09:55:31;;;;;;;5.45;2.38;;;8.90;99.90;;;;;;5024470;28;20060;-63
2021/03/14 09:58:15;;;;;;;6.55;2.15;;;9.00;99.90;;;;;;5026028;28;20063;-62
2021/03/14 10:00:45;;;;;;;5.15;1.55;;;9.10;99.90;;;;;;5015305;28;20053;-63
2021/03/14 10:03:15;;;;;;;1.77;0.65;;;9.10;99.90;;;;;;5027482;28;20136;-63
2021/03/14 10:06:21;;;;;;;5.00;1.88;;;9.00;99.90;;;;;;5025445;28;20057;-63
2021/03/14 10:09:02;;;;;;;5.68;1.65;;;9.20;99.90;;;;;;5015341;28;20054;-63
2021/03/14 10:11:29;;;;;;;4.35;2.00;;;9.00;99.90;;;;;;5027325;28;20048;-63
2021/03/14 10:14:01;;;;;;;6.28;2.63;;;9.00;99.90;;;;;;5026604;28;20064;-62
2021/03/14 10:16:30;;;;;;;3.65;1.42;;;8.90;99.90;;;;;;5023884;28;20102;-62
2021/03/14 10:19:04;;;;;;;5.30;1.90;;;9.00;99.90;;;;;;5019945;28;20077;-62
2021/03/14 10:21:43;;;;;;;6.40;2.40;;;9.00;99.90;;;;;;5008345;28;20067;-63
2021/03/14 10:24:27;;;;;;;4.70;1.90;;;9.10;99.90;;;;;;5024795;28;20823;-62
2021/03/14 10:27:21;;;;;;;7.40;2.10;;;9.10;99.90;;;;;;5040129;28;20087;-62
2021/03/14 10:30:18;;;;;;;6.97;2.40;;;9.20;99.90;;;;;;5018346;28;20052;-63
2021/03/14 10:33:31;;;;;;;5.28;2.28;;;9.20;99.90;;;;;;5015243;28;20145;-62
2021/03/14 10:36:03;;;;;;;7.78;2.28;;;9.20;99.90;;;;;;5044239;28;20514;-63
2021/03/14 10:38:47;;;;;;;4.03;1.83;;;9.20;99.90;;;;;;5026335;28;20107;-63
2021/03/14 10:41:25;;;;;;;4.60;1.40;;;9.30;99.90;;;;;;5045315;28;20805;-63
2021/03/14 10:44:02;;;;;;;3.25;1.45;;;9.30;99.90;;;;;;5063688;28;20507;-63
2021/03/14 10:46:48;;;;;;;2.50;0.75;;;9.30;99.90;;;;;;5036562;28;20557;-65
2021/03/14 10:49:23;;;;;;;3.15;1.00;;;9.20;99.90;;;;;;5061216;28;20047;-64
2021/03/14 10:51:53;;;;;;;5.53;1.15;;;9.20;99.90;;;;;;5047739;28;20048;-64
2021/03/14 10:54:23;;;;;;;4.25;1.15;;;9.20;99.90;;;;;;5048681;28;20076;-63
2021/03/14 10:56:51;;;;;;;5.35;1.02;;;9.30;99.90;;;;;;5038803;28;20045;-63
2021/03/14 10:59:30;;;;;;;1.73;0.60;;;9.40;99.90;;;;;;5031424;28;20037;-63
2021/03/14 11:02:23;;;;;;;7.85;1.50;;;9.50;99.90;;;;;;5042629;28;20147;-63
2021/03/14 11:05:00;;;;;;;4.82;1.30;;;9.60;99.90;;;;;;5045036;28;20573;-63
2021/03/14 11:07:35;;;;;;;6.40;1.05;;;9.80;99.90;;;;;;5047317;28;20133;-64
2021/03/14 11:10:21;;;;;;;2.65;0.60;;;9.70;99.90;;;;;;5051023;28;20715;-64
2021/03/14 11:12:59;;;;;;;3.38;1.00;;;9.50;99.90;;;;;;5064060;28;20111;-63
2021/03/14 11:15:33;;;;;;;4.07;1.02;;;9.60;99.90;;;;;;5049907;28;20045;-63
2021/03/14 11:18:23;;;;;;;4.97;1.35;;;9.60;99.90;;;;;;5069695;28;20555;-63
2021/03/14 11:21:10;;;;;;;2.47;0.52;;;9.80;99.90;;;;;;5060361;28;20091;-63
2021/03/14 11:23:41;;;;;;;2.10;1.00;;;9.90;99.90;;;;;;5047512;28;20053;-63
2021/03/14 11:26:31;;;;;;;8.40;3.17;;;10.00;99.90;;;;;;5050733;28;20125;-63
2021/03/14 11:28:58;;;;;;;2.65;1.00;;;10.10;99.90;;;;;;5066642;28;20048;-64
2021/03/14 11:31:34;;;;;;;2.38;0.90;;;10.20;99.90;;;;;;5051760;28;20132;-63
2021/03/14 11:34:06;;;;;;;3.78;0.75;;;10.20;99.90;;;;;;5049157;28;20068;-66
2021/03/14 11:36:40;;;;;;;9.35;5.03;;;10.20;99.90;;;;;;5036676;28;20130;-63
2021/03/14 11:39:22;;;;;;;2.53;1.00;;;10.40;99.90;;;;;;5034319;28;20041;-63
2021/03/14 11:41:56;;;;;;;6.25;4.18;;;10.40;99.90;;;;;;5037999;28;20067;-63
2021/03/14 11:44:43;;;;;;;8.40;3.58;;;10.40;99.90;;;;;;5073093;28;20234;-62
2021/03/14 11:47:09;;;;;;;6.07;1.90;;;10.40;99.90;;;;;;5044521;28;20075;-63
2021/03/14 11:49:47;;;;;;;2.80;1.20;;;10.40;99.90;;;;;;5052851;28;20736;-62
2021/03/14 11:52:14;;;;;;;3.95;0.73;;;10.50;99.90;;;;;;5050187;28;20458;-63
2021/03/14 11:54:42;;;;;;;15.50;5.43;;;10.50;99.90;;;;;;5058729;28;20045;-63
2021/03/14 11:57:13;;;;;;;12.18;5.45;;;10.30;99.90;;;;;;5041267;28;20490;-63
2021/03/14 11:59:43;;;;;;;6.28;2.83;;;10.20;99.90;;;;;;5043667;28;20597;-63
2021/03/14 12:02:11;;;;;;;2.50;1.30;;;10.20;99.90;;;;;;5066114;28;20052;-63
2021/03/14 12:05:02;;;;;;;3.63;0.98;;;10.20;99.90;;;;;;5049920;28;20080;-62
2021/03/14 12:07:32;;;;;;;5.50;2.45;;;10.10;99.90;;;;;;5053389;28;20091;-74
2021/03/14 12:09:59;;;;;;;6.97;3.00;;;10.00;99.90;;;;;;5073648;28;20038;-63
2021/03/14 12:12:29;;;;;;;7.32;3.40;;;10.00;99.90;;;;;;5052711;28;20041;-63
2021/03/14 12:15:09;;;;;;;6.93;2.50;;;10.10;99.90;;;;;;5053559;28;20048;-64
2021/03/14 12:17:49;;;;;;;2.95;1.17;;;10.10;99.90;;;;;;5046591;28;20083;-63
2021/03/14 12:20:19;;;;;;;3.38;0.98;;;10.10;99.90;;;;;;5067175;28;20102;-62
2021/03/14 12:22:56;;;;;;;5.43;1.65;;;10.20;99.90;;;;;;5044986;28;20040;-65
2021/03/14 12:25:25;;;;;;;8.13;2.30;;;10.40;99.90;;;;;;5050981;28;20044;-64
2021/03/14 12:27:54;;;;;;;3.92;0.70;;;10.40;99.90;;;;;;5064350;28;20045;-64
2021/03/14 12:30:21;;;;;;;4.65;0.98;;;10.50;99.90;;;;;;5050485;28;20048;-62
2021/03/14 12:32:48;;;;;;;2.88;0.70;;;10.50;99.90;;;;;;5070210;28;20375;-63
2021/03/14 12:35:22;;;;;;;3.72;0.80;;;10.40;99.90;;;;;;5070523;28;20056;-63
2021/03/14 12:37:51;;;;;;;1.05;0.40;;;10.40;99.90;;;;;;5063108;28;20431;-62
2021/03/14 12:40:18;;;;;;;2.25;0.88;;;10.40;99.90;;;;;;5041588;28;20494;-63
2021/03/14 12:42:45;;;;;;;3.00;0.85;;;10.50;99.90;;;;;;5027462;28;20415;-63
2021/03/14 12:45:23;;;;;;;4.30;1.40;;;10.60;99.90;;;;;;5041940;28;20086;-65
2021/03/14 12:47:52;;;;;;;3.22;0.70;;;10.80;99.90;;;;;;5032156;28;20049;-65
2021/03/14 12:50:25;;;;;;;4.72;1.60;;;10.70;99.90;;;;;;5035099;28;20558;-65
2021/03/14 12:52:54;;;;;;;6.18;1.70;;;10.70;99.90;;;;;;5020135;28;20088;-65
2021/03/14 12:55:22;;;;;;;3.28;1.20;;;10.70;99.90;;;;;;5047430;28;20048;-64
2021/03/14 12:57:51;;;;;;;3.55;0.88;;;10.80;99.90;;;;;;5047573;28;20545;-65
2021/03/14 13:00:28;;;;;;;4.28;1.20;;;10.70;99.90;;;;;;5048251;28;20103;-65
2021/03/14 13:02:54;;;;;;;2.75;0.80;;;10.80;99.90;;;;;;5063672;28;20500;-64
2021/03/14 13:05:24;;;;;;;4.60;0.75;;;10.90;99.90;;;;;;5046670;28;20048;-64
2021/03/14 13:07:51;;;;;;;3.60;0.80;;;10.90;99.90;;;;;;5064438;28;20032;-64
2021/03/14 13:10:18;;;;;;;2.85;0.85;;;11.00;99.90;;;;;;5061077;28;20554;-65
2021/03/14 13:12:44;;;;;;;2.42;1.00;;;11.10;99.90;;;;;;5063981;28;20040;-65
2021/03/14 13:15:19;;;;;;;3.58;1.27;;;11.10;99.90;;;;;;5063248;28;20036;-64